Time;durP1;ratioP1;P1;durP2;ratioP2;P2;SDS_P1;SDS_P2;PMS_P1;PMS_P2;Temp;Humidity;BMP_temperature;BMP_pressure;BME280_temperature;BME280_humidity;BME280_pressure;Samples;Min_cycle;Max_cycle;Signal;HPM_P1;HPM_P2
2021/09/20 00:00:17;;;;;;;2.53;1.77;;;13.80;80.10;;;;;;4909395;29;20536;-68
2021/09/20 00:02:44;;;;;;;2.60;1.77;;;13.90;80.50;;;;;;4912141;29;20050;-68
2021/09/20 00:05:10;;;;;;;4.07;1.75;;;13.90;80.50;;;;;;4912760;29;20051;-68
2021/09/20 00:07:37;;;;;;;3.92;1.70;;;13.90;80.20;;;;;;4911336;29;20048;-68
2021/09/20 00:10:06;;;;;;;5.07;1.80;;;13.80;80.00;;;;;;4914614;29;20042;-68
2021/09/20 00:12:31;;;;;;;2.95;1.85;;;13.80;80.10;;;;;;4910099;29;20242;-68
2021/09/20 00:14:57;;;;;;;3.97;1.70;;;13.80;80.40;;;;;;4911119;29;20484;-68
2021/09/20 00:17:22;;;;;;;2.88;1.70;;;13.80;80.70;;;;;;4910922;29;20154;-68
2021/09/20 00:19:48;;;;;;;2.50;2.08;;;13.70;80.40;;;;;;4913085;29;20044;-68
2021/09/20 00:22:14;;;;;;;4.90;1.75;;;13.70;80.80;;;;;;4910069;29;20074;-68
2021/09/20 00:24:39;;;;;;;3.08;1.92;;;13.70;81.00;;;;;;4911190;29;20036;-68
2021/09/20 00:27:07;;;;;;;3.40;1.90;;;13.70;80.60;;;;;;4908770;29;20040;-68
2021/09/20 00:29:34;;;;;;;2.55;1.95;;;13.70;80.30;;;;;;4907680;29;20680;-68
2021/09/20 00:32:00;;;;;;;3.95;1.88;;;13.70;80.60;;;;;;4910993;29;20539;-68
2021/09/20 00:34:26;;;;;;;4.30;1.80;;;13.60;80.70;;;;;;4911389;29;20077;-68
2021/09/20 00:36:51;;;;;;;2.97;1.85;;;13.60;81.20;;;;;;4910850;29;20138;-68
2021/09/20 00:39:17;;;;;;;2.50;1.63;;;13.60;81.20;;;;;;4910840;29;20032;-68
2021/09/20 00:41:43;;;;;;;5.55;1.98;;;13.60;81.10;;;;;;4911264;29;20560;-68
2021/09/20 00:44:09;;;;;;;3.47;1.83;;;13.50;81.30;;;;;;4911300;29;20476;-68
2021/09/20 00:46:34;;;;;;;2.55;1.90;;;13.50;81.40;;;;;;4917511;29;20071;-68
2021/09/20 00:49:00;;;;;;;2.72;1.63;;;13.50;81.60;;;;;;4916171;29;20127;-68
2021/09/20 00:51:26;;;;;;;7.22;1.85;;;13.50;81.50;;;;;;4918083;29;21007;-68
2021/09/20 00:53:52;;;;;;;3.40;1.83;;;13.50;81.30;;;;;;4917854;29;20070;-67
2021/09/20 00:56:18;;;;;;;4.70;2.05;;;13.50;81.30;;;;;;4917587;29;20040;-68
2021/09/20 00:58:45;;;;;;;7.32;2.25;;;13.50;81.50;;;;;;4918204;29;20044;-68
2021/09/20 01:01:11;;;;;;;2.40;1.70;;;13.40;81.80;;;;;;4916274;29;20138;-68
2021/09/20 01:03:37;;;;;;;3.35;1.65;;;13.40;81.70;;;;;;4918268;29;20034;-68
2021/09/20 01:06:03;;;;;;;2.67;2.20;;;13.40;81.90;;;;;;4915590;29;20072;-68
2021/09/20 01:08:29;;;;;;;3.47;1.75;;;13.30;82.50;;;;;;4919126;29;20040;-68
2021/09/20 01:10:54;;;;;;;4.68;2.15;;;13.30;82.50;;;;;;4917776;29;20031;-68
2021/09/20 01:13:20;;;;;;;6.70;1.67;;;13.40;82.30;;;;;;4920919;28;20043;-69
2021/09/20 01:15:46;;;;;;;4.10;2.08;;;13.30;82.50;;;;;;4918347;29;20118;-68
2021/09/20 01:18:11;;;;;;;3.58;1.90;;;13.30;82.90;;;;;;4915505;29;20028;-68
2021/09/20 01:20:37;;;;;;;3.28;1.90;;;13.30;83.00;;;;;;4918210;29;20036;-68
2021/09/20 01:23:03;;;;;;;3.10;1.88;;;13.30;83.00;;;;;;4915743;29;20040;-68
2021/09/20 01:25:30;;;;;;;4.88;1.90;;;13.40;82.70;;;;;;4920416;29;20035;-68
2021/09/20 01:27:56;;;;;;;6.50;1.92;;;13.40;82.60;;;;;;4919139;29;20046;-68
2021/09/20 01:30:23;;;;;;;3.45;2.20;;;13.40;83.10;;;;;;4914202;29;20070;-68
2021/09/20 01:32:49;;;;;;;6.15;2.15;;;13.40;82.80;;;;;;4916359;28;20047;-68
2021/09/20 01:35:19;;;;;;;3.45;1.95;;;13.40;82.50;;;;;;4917642;29;20039;-68
2021/09/20 01:37:45;;;;;;;3.55;2.40;;;13.40;82.60;;;;;;4915482;29;20035;-68
2021/09/20 01:40:12;;;;;;;5.40;2.13;;;13.40;82.10;;;;;;4918352;29;20028;-68
2021/09/20 01:42:39;;;;;;;2.50;1.70;;;13.40;82.20;;;;;;4924895;29;20038;-68
2021/09/20 01:45:05;;;;;;;6.28;2.15;;;13.40;82.30;;;;;;4925013;29;20047;-68
2021/09/20 01:47:32;;;;;;;4.93;2.05;;;13.40;82.20;;;;;;4914959;29;20564;-68
2021/09/20 01:49:57;;;;;;;3.42;2.03;;;13.40;82.50;;;;;;4920067;29;20040;-74
2021/09/20 01:52:23;;;;;;;3.05;2.05;;;13.40;82.80;;;;;;4917516;29;20036;-74
2021/09/20 01:54:49;;;;;;;2.80;1.88;;;13.40;82.50;;;;;;4919831;29;20612;-73
2021/09/20 01:57:15;;;;;;;2.75;2.13;;;13.50;81.80;;;;;;4913217;29;20109;-74
2021/09/20 01:59:40;;;;;;;5.68;2.17;;;13.40;81.90;;;;;;4913472;29;20047;-73
2021/09/20 02:02:06;;;;;;;3.78;2.10;;;13.50;81.90;;;;;;4912926;29;20036;-73
2021/09/20 02:04:31;;;;;;;2.90;1.90;;;13.50;81.90;;;;;;4915394;29;20555;-74
2021/09/20 02:06:57;;;;;;;3.75;2.00;;;13.50;82.00;;;;;;4912088;29;20072;-74
2021/09/20 02:09:23;;;;;;;3.22;2.08;;;13.40;82.00;;;;;;4912871;29;20052;-74
2021/09/20 02:11:49;;;;;;;3.88;1.80;;;13.40;81.90;;;;;;4911597;29;20044;-73
2021/09/20 02:14:14;;;;;;;4.05;2.20;;;13.40;82.60;;;;;;4914386;29;20034;-74
2021/09/20 02:16:40;;;;;;;3.13;2.20;;;13.40;83.00;;;;;;4914262;29;20035;-73
2021/09/20 02:19:06;;;;;;;3.38;1.98;;;13.40;83.10;;;;;;4914962;29;20035;-74
2021/09/20 02:21:32;;;;;;;4.90;1.92;;;13.40;83.00;;;;;;4915729;29;20040;-74
2021/09/20 02:23:57;;;;;;;4.05;2.00;;;13.40;82.90;;;;;;4917178;29;20035;-74
2021/09/20 02:26:23;;;;;;;3.67;1.90;;;13.40;82.40;;;;;;4916460;29;20828;-74
2021/09/20 02:28:49;;;;;;;3.17;1.95;;;13.40;82.60;;;;;;4916171;29;20481;-73
2021/09/20 02:31:15;;;;;;;3.83;1.92;;;13.40;82.50;;;;;;4913515;29;20039;-74
2021/09/20 02:33:42;;;;;;;2.55;1.77;;;13.40;82.10;;;;;;4916243;29;20122;-74
2021/09/20 02:36:08;;;;;;;2.90;1.70;;;13.40;83.00;;;;;;4915811;29;20035;-74
2021/09/20 02:38:34;;;;;;;3.50;2.03;;;13.40;82.20;;;;;;4913750;29;20028;-74
2021/09/20 02:41:00;;;;;;;4.53;1.83;;;13.40;82.10;;;;;;4913863;29;20036;-74
2021/09/20 02:43:26;;;;;;;4.68;2.40;;;13.40;82.40;;;;;;4915711;29;20039;-73
2021/09/20 02:45:52;;;;;;;4.00;2.10;;;13.40;82.40;;;;;;4912186;29;20157;-74
2021/09/20 02:48:18;;;;;;;3.85;2.00;;;13.40;82.20;;;;;;4913163;29;20043;-73
2021/09/20 02:50:44;;;;;;;4.60;2.40;;;13.50;82.00;;;;;;4913881;29;20045;-74
2021/09/20 02:53:10;;;;;;;2.38;1.70;;;13.40;82.30;;;;;;4915132;29;20039;-74
2021/09/20 02:55:35;;;;;;;4.25;2.45;;;13.40;82.40;;;;;;4913623;29;20441;-74
2021/09/20 02:58:02;;;;;;;4.53;1.90;;;13.40;82.40;;;;;;4912207;29;20778;-74
2021/09/20 03:00:27;;;;;;;3.83;2.00;;;13.40;82.70;;;;;;4913854;29;20054;-74
2021/09/20 03:02:53;;;;;;;7.22;2.50;;;13.40;82.50;;;;;;4914689;29;20048;-74
2021/09/20 03:05:19;;;;;;;4.72;1.88;;;13.40;82.50;;;;;;4912433;29;20040;-74
2021/09/20 03:07:45;;;;;;;4.43;2.08;;;13.40;82.30;;;;;;4914269;29;20074;-74
2021/09/20 03:10:12;;;;;;;5.80;2.40;;;13.40;82.60;;;;;;4913477;29;20035;-74
2021/09/20 03:12:38;;;;;;;4.18;2.25;;;13.30;82.70;;;;;;4914283;29;20039;-74
2021/09/20 03:15:05;;;;;;;2.08;1.63;;;13.40;82.80;;;;;;4911981;29;20047;-74
2021/09/20 03:17:30;;;;;;;3.45;1.83;;;13.40;82.60;;;;;;4913627;29;20087;-74
2021/09/20 03:19:58;;;;;;;5.35;2.17;;;13.40;83.10;;;;;;4917864;29;20039;-74
2021/09/20 03:22:24;;;;;;;4.82;2.05;;;13.30;83.30;;;;;;4928984;28;20036;-74
2021/09/20 03:24:50;;;;;;;3.38;1.80;;;13.30;83.10;;;;;;4913463;29;20054;-74
2021/09/20 03:27:16;;;;;;;5.13;2.20;;;13.30;83.40;;;;;;4910189;29;20051;-73
2021/09/20 03:29:41;;;;;;;4.40;2.25;;;13.30;83.60;;;;;;4914349;29;20064;-73
2021/09/20 03:32:07;;;;;;;2.83;2.10;;;13.30;83.60;;;;;;4914614;29;20031;-73
2021/09/20 03:34:33;;;;;;;3.83;2.08;;;13.30;83.20;;;;;;4919217;29;20116;-74
2021/09/20 03:36:59;;;;;;;4.35;2.10;;;13.30;83.10;;;;;;4917205;29;20150;-74
2021/09/20 03:39:25;;;;;;;4.10;2.40;;;13.30;83.40;;;;;;4911721;29;20068;-74
2021/09/20 03:41:50;;;;;;;3.42;1.95;;;13.30;83.90;;;;;;4910267;29;20040;-73
2021/09/20 03:44:16;;;;;;;4.68;2.42;;;13.30;83.80;;;;;;4912066;29;20036;-74
2021/09/20 03:46:42;;;;;;;4.45;2.45;;;13.30;83.40;;;;;;4915990;29;20047;-74
2021/09/20 03:49:07;;;;;;;3.08;2.13;;;13.30;83.60;;;;;;4911342;29;20067;-74
2021/09/20 03:51:33;;;;;;;3.50;1.95;;;13.30;83.70;;;;;;4913554;29;20048;-73
2021/09/20 03:53:59;;;;;;;3.45;2.20;;;13.30;83.20;;;;;;4917993;29;20040;-74
2021/09/20 03:56:24;;;;;;;2.97;2.40;;;13.30;83.20;;;;;;4917088;29;20066;-73
2021/09/20 03:58:50;;;;;;;3.85;2.30;;;13.30;83.00;;;;;;4915119;29;20043;-74
2021/09/20 04:01:16;;;;;;;3.65;2.10;;;13.30;83.40;;;;;;4916320;29;20193;-74
2021/09/20 04:03:41;;;;;;;3.25;2.20;;;13.30;83.80;;;;;;4914335;29;20479;-74
2021/09/20 04:06:07;;;;;;;3.63;2.03;;;13.30;83.90;;;;;;4914647;29;20043;-74
2021/09/20 04:08:33;;;;;;;2.47;2.22;;;13.30;83.90;;;;;;4913220;29;20500;-76
2021/09/20 04:10:59;;;;;;;2.88;2.17;;;13.30;83.20;;;;;;4925474;28;20021;-73
2021/09/20 04:13:25;;;;;;;4.40;2.47;;;13.30;83.20;;;;;;4914348;29;20039;-75
2021/09/20 04:15:55;;;;;;;2.85;2.13;;;13.30;83.20;;;;;;4912034;29;20571;-75
2021/09/20 04:18:22;;;;;;;3.75;2.05;;;13.30;83.40;;;;;;4911316;29;20028;-74
2021/09/20 04:20:49;;;;;;;4.50;2.15;;;13.30;83.60;;;;;;4913357;29;20118;-75
2021/09/20 04:23:15;;;;;;;4.03;2.35;;;13.30;83.30;;;;;;4925507;29;20130;-74
2021/09/20 04:25:41;;;;;;;5.03;2.40;;;13.30;83.20;;;;;;4914052;29;20067;-74
2021/09/20 04:28:07;;;;;;;4.25;2.08;;;13.30;83.80;;;;;;4910426;29;20043;-74
2021/09/20 04:30:33;;;;;;;3.95;2.25;;;13.30;83.60;;;;;;4913326;29;20106;-73
2021/09/20 04:32:58;;;;;;;4.85;2.05;;;13.30;83.30;;;;;;4914635;29;20039;-74
2021/09/20 04:35:24;;;;;;;3.75;1.83;;;13.30;83.50;;;;;;4918414;29;20032;-76
2021/09/20 04:37:50;;;;;;;2.63;2.15;;;13.30;83.60;;;;;;4907825;29;20063;-73
2021/09/20 04:40:16;;;;;;;5.40;2.10;;;13.30;83.60;;;;;;4911329;29;20517;-74
2021/09/20 04:42:41;;;;;;;3.03;2.10;;;13.30;83.70;;;;;;4913260;29;20459;-74
2021/09/20 04:45:07;;;;;;;2.28;1.75;;;13.30;83.80;;;;;;4911331;29;20036;-74
2021/09/20 04:47:33;;;;;;;5.85;2.30;;;13.30;83.70;;;;;;4916532;29;20131;-75
2021/09/20 04:49:59;;;;;;;3.60;1.98;;;13.20;83.70;;;;;;4912518;29;20144;-74
2021/09/20 04:52:24;;;;;;;3.10;2.05;;;13.20;83.60;;;;;;4908341;29;20036;-74
2021/09/20 04:54:51;;;;;;;4.35;2.60;;;13.20;84.20;;;;;;4917563;29;20063;-73
2021/09/20 04:57:17;;;;;;;4.43;2.70;;;13.20;84.50;;;;;;4913013;29;20158;-73
2021/09/20 04:59:42;;;;;;;5.20;2.25;;;13.20;84.60;;;;;;4914205;29;20039;-74
2021/09/20 05:02:08;;;;;;;2.65;1.92;;;13.20;84.00;;;;;;4916026;29;20047;-74
2021/09/20 05:04:34;;;;;;;3.22;1.63;;;13.30;83.80;;;;;;4907874;29;20043;-74
2021/09/20 05:06:59;;;;;;;7.18;1.80;;;13.30;83.80;;;;;;4910762;29;20114;-74
2021/09/20 05:09:25;;;;;;;4.22;2.35;;;13.30;83.60;;;;;;4914028;29;20036;-74
2021/09/20 05:11:51;;;;;;;7.60;2.50;;;13.30;83.40;;;;;;4917734;29;20032;-74
2021/09/20 05:14:16;;;;;;;3.50;1.88;;;13.30;83.40;;;;;;4913382;29;20063;-73
2021/09/20 05:16:42;;;;;;;3.15;1.95;;;13.30;83.50;;;;;;4926906;29;20028;-74
2021/09/20 05:19:08;;;;;;;6.03;2.40;;;13.30;83.70;;;;;;4912875;29;20134;-73
2021/09/20 05:21:33;;;;;;;3.28;1.77;;;13.20;83.40;;;;;;4912692;29;20147;-75
2021/09/20 05:23:59;;;;;;;3.28;1.95;;;13.30;83.70;;;;;;4915898;29;20032;-75
2021/09/20 05:26:25;;;;;;;4.45;2.10;;;13.30;84.00;;;;;;4911143;29;20579;-75
2021/09/20 05:28:51;;;;;;;5.15;2.15;;;13.30;84.10;;;;;;4912095;29;20040;-75
2021/09/20 05:31:17;;;;;;;2.88;2.17;;;13.30;84.30;;;;;;4916178;29;20043;-74
2021/09/20 05:33:42;;;;;;;2.70;1.92;;;13.30;84.70;;;;;;4918170;29;20075;-74
2021/09/20 05:36:08;;;;;;;3.65;2.17;;;13.30;84.80;;;;;;4922282;29;20111;-74
2021/09/20 05:38:34;;;;;;;3.72;2.42;;;13.40;84.80;;;;;;4914841;29;20552;-74
2021/09/20 05:41:00;;;;;;;2.78;2.08;;;13.40;84.70;;;;;;4916500;29;20064;-73
2021/09/20 05:43:25;;;;;;;2.75;1.98;;;13.40;84.50;;;;;;4917434;29;20033;-73
2021/09/20 05:45:52;;;;;;;4.07;2.30;;;13.50;84.20;;;;;;4920899;29;20186;-73
2021/09/20 05:48:20;;;;;;;5.32;1.98;;;13.50;84.30;;;;;;4919237;29;20031;-74
2021/09/20 05:50:46;;;;;;;3.85;2.17;;;13.50;84.20;;;;;;4917256;29;20043;-74
2021/09/20 05:53:13;;;;;;;3.88;1.85;;;13.60;84.80;;;;;;4919147;29;20118;-74
2021/09/20 05:55:40;;;;;;;2.63;1.98;;;13.60;84.00;;;;;;4916054;29;20548;-74
2021/09/20 05:58:06;;;;;;;3.17;1.75;;;13.60;83.80;;;;;;4914507;29;20168;-74
2021/09/20 06:00:32;;;;;;;4.13;2.28;;;13.70;83.60;;;;;;4917490;29;20035;-74
2021/09/20 06:02:58;;;;;;;4.55;2.40;;;13.70;83.30;;;;;;4918456;29;20036;-74
2021/09/20 06:05:24;;;;;;;2.45;1.90;;;13.70;83.00;;;;;;4913739;29;20038;-74
2021/09/20 06:07:49;;;;;;;3.30;2.22;;;13.80;82.80;;;;;;4915897;29;20048;-74
2021/09/20 06:10:16;;;;;;;2.17;1.67;;;13.80;82.60;;;;;;4913389;29;20087;-74
2021/09/20 06:12:42;;;;;;;4.00;1.95;;;13.80;82.50;;;;;;4919995;29;20060;-70
2021/09/20 06:15:10;;;;;;;3.25;1.98;;;13.90;82.30;;;;;;4916943;29;20031;-73
2021/09/20 06:17:36;;;;;;;2.97;2.25;;;14.00;82.20;;;;;;4913376;29;20449;-73
2021/09/20 06:20:04;;;;;;;12.20;8.82;;;14.00;81.40;;;;;;4917266;29;20042;-73
2021/09/20 06:22:29;;;;;;;7.53;3.78;;;14.10;81.20;;;;;;4914820;29;20039;-74
2021/09/20 06:24:57;;;;;;;4.28;2.60;;;14.10;81.30;;;;;;4912615;29;20666;-73
2021/09/20 06:27:23;;;;;;;4.28;2.17;;;14.20;81.20;;;;;;4917015;29;20031;-75
2021/09/20 06:29:48;;;;;;;3.20;2.03;;;14.20;81.30;;;;;;4915493;29;20565;-74
2021/09/20 06:32:14;;;;;;;2.67;2.00;;;14.30;81.40;;;;;;4911719;29;20068;-72
2021/09/20 06:34:40;;;;;;;2.65;1.92;;;14.40;80.90;;;;;;4915487;29;20027;-73
2021/09/20 06:37:05;;;;;;;2.47;1.90;;;14.40;80.40;;;;;;4915967;29;20115;-74
2021/09/20 06:39:33;;;;;;;3.65;1.80;;;14.50;80.20;;;;;;4921081;29;20032;-73
2021/09/20 06:41:59;;;;;;;2.25;1.90;;;14.50;80.40;;;;;;4917191;29;20602;-73
2021/09/20 06:44:24;;;;;;;4.45;2.00;;;14.60;80.50;;;;;;4919938;29;20118;-73
2021/09/20 06:46:50;;;;;;;3.97;2.00;;;14.60;80.20;;;;;;4921351;29;20046;-73
2021/09/20 06:49:16;;;;;;;2.63;1.95;;;14.70;79.80;;;;;;4916475;29;20043;-73
2021/09/20 06:51:43;;;;;;;5.80;1.92;;;14.70;80.00;;;;;;4917970;29;20919;-73
2021/09/20 06:54:09;;;;;;;3.42;2.03;;;14.80;79.00;;;;;;4920146;29;20036;-73
2021/09/20 06:56:35;;;;;;;3.90;2.05;;;14.80;78.50;;;;;;4920430;29;20207;-73
2021/09/20 06:59:01;;;;;;;4.43;2.45;;;14.80;79.00;;;;;;4919819;29;20494;-74
2021/09/20 07:01:27;;;;;;;4.78;2.63;;;14.80;78.40;;;;;;4916308;29;20102;-72
2021/09/20 07:03:52;;;;;;;3.13;1.90;;;14.80;78.40;;;;;;4918800;29;20118;-72
2021/09/20 07:06:18;;;;;;;2.55;2.05;;;14.90;78.10;;;;;;4915987;29;20028;-71
2021/09/20 07:08:44;;;;;;;3.10;2.13;;;14.90;78.40;;;;;;4915322;29;20035;-72
2021/09/20 07:11:09;;;;;;;2.80;2.17;;;14.90;78.00;;;;;;4914963;29;20448;-71
2021/09/20 07:13:35;;;;;;;4.05;1.98;;;15.00;77.90;;;;;;4920514;29;20040;-71
2021/09/20 07:16:01;;;;;;;3.22;2.15;;;15.10;77.30;;;;;;4916065;29;20035;-71
2021/09/20 07:18:26;;;;;;;3.13;2.10;;;15.10;77.00;;;;;;4915588;29;20842;-71
2021/09/20 07:20:52;;;;;;;2.70;1.70;;;15.10;77.40;;;;;;4917897;29;20039;-71
2021/09/20 07:23:18;;;;;;;2.83;2.00;;;15.20;77.10;;;;;;4917078;29;20123;-71
2021/09/20 07:25:44;;;;;;;2.97;2.00;;;15.20;76.10;;;;;;4917964;29;20103;-72
2021/09/20 07:28:09;;;;;;;4.03;2.20;;;15.30;75.70;;;;;;4918026;29;20389;-72
2021/09/20 07:30:37;;;;;;;4.30;1.85;;;15.30;75.80;;;;;;4911475;29;20028;-72
2021/09/20 07:33:02;;;;;;;2.42;1.77;;;15.40;72.40;;;;;;4911946;29;20387;-72
2021/09/20 07:35:28;;;;;;;2.60;2.17;;;15.40;71.80;;;;;;4915189;29;20111;-71
2021/09/20 07:37:55;;;;;;;3.70;1.98;;;15.50;72.60;;;;;;4912501;29;20067;-71
2021/09/20 07:40:24;;;;;;;2.03;1.63;;;15.50;72.80;;;;;;4917495;29;20036;-71
2021/09/20 07:42:51;;;;;;;5.18;1.65;;;15.60;72.40;;;;;;4919914;29;20038;-72
2021/09/20 07:45:17;;;;;;;5.22;2.17;;;15.60;72.70;;;;;;4915585;29;20035;-71
2021/09/20 07:47:43;;;;;;;2.80;2.10;;;15.70;72.10;;;;;;4910844;29;20031;-71
2021/09/20 07:50:10;;;;;;;3.00;1.83;;;15.80;71.50;;;;;;4914786;29;20122;-71
2021/09/20 07:52:36;;;;;;;2.63;1.77;;;15.80;72.70;;;;;;4915568;29;20036;-71
2021/09/20 07:55:05;;;;;;;2.00;1.80;;;15.90;73.20;;;;;;4913842;29;20036;-72
2021/09/20 07:57:30;;;;;;;2.78;2.03;;;16.00;74.40;;;;;;4913250;29;20828;-71
2021/09/20 07:59:56;;;;;;;3.35;1.83;;;16.20;72.80;;;;;;4913832;29;20031;-71
2021/09/20 08:02:22;;;;;;;3.20;2.00;;;16.30;71.00;;;;;;4912381;29;20036;-71
2021/09/20 08:04:47;;;;;;;2.97;1.83;;;16.30;70.70;;;;;;4921073;29;20039;-72
2021/09/20 08:07:13;;;;;;;2.80;2.10;;;16.40;71.00;;;;;;4911195;29;20043;-74
2021/09/20 08:09:39;;;;;;;2.58;1.85;;;16.40;70.00;;;;;;4914317;29;20040;-73
2021/09/20 08:12:05;;;;;;;2.22;1.70;;;16.60;70.50;;;;;;4914046;29;20050;-73
2021/09/20 08:14:30;;;;;;;2.92;2.00;;;16.60;70.00;;;;;;4915208;29;20032;-73
2021/09/20 08:16:56;;;;;;;3.20;1.90;;;16.70;68.80;;;;;;4911787;29;20600;-74
2021/09/20 08:19:22;;;;;;;2.58;1.83;;;16.80;66.80;;;;;;4914954;29;20884;-73
2021/09/20 08:21:48;;;;;;;3.45;1.88;;;16.80;67.60;;;;;;4912541;29;20074;-70
2021/09/20 08:24:15;;;;;;;7.70;2.20;;;16.90;67.30;;;;;;4913411;29;20047;-73
2021/09/20 08:26:41;;;;;;;2.17;1.85;;;17.00;68.40;;;;;;4913627;29;20431;-73
2021/09/20 08:29:07;;;;;;;2.83;1.80;;;17.10;69.60;;;;;;4910779;29;20035;-73
2021/09/20 08:31:33;;;;;;;3.10;2.10;;;17.20;68.10;;;;;;4912797;29;20035;-73
2021/09/20 08:33:59;;;;;;;2.97;1.58;;;17.30;66.40;;;;;;4911728;29;20124;-73
2021/09/20 08:36:25;;;;;;;1.83;1.63;;;17.40;66.80;;;;;;4912497;29;20046;-74
2021/09/20 08:38:50;;;;;;;5.15;2.08;;;17.40;64.40;;;;;;4913465;29;20106;-73
2021/09/20 08:41:17;;;;;;;3.80;1.95;;;17.30;63.10;;;;;;4912634;29;20031;-74
2021/09/20 08:43:43;;;;;;;2.42;1.80;;;17.30;64.00;;;;;;4912428;29;20806;-74
2021/09/20 08:46:08;;;;;;;4.85;2.10;;;17.40;65.20;;;;;;4915784;29;20031;-75
2021/09/20 08:48:46;;;;;;;4.07;2.05;;;17.40;63.60;;;;;;4913021;29;20036;-72
2021/09/20 08:51:13;;;;;;;3.10;2.00;;;17.50;64.20;;;;;;4913554;29;20709;-73
2021/09/20 08:53:39;;;;;;;3.47;2.45;;;17.50;64.80;;;;;;4914156;29;20043;-73
2021/09/20 08:56:06;;;;;;;2.72;2.03;;;17.50;65.00;;;;;;4912947;29;20031;-71
2021/09/20 08:58:32;;;;;;;4.05;2.28;;;17.60;65.20;;;;;;4911134;29;20036;-73
2021/09/20 09:00:58;;;;;;;4.60;2.20;;;17.60;63.00;;;;;;4911531;29;20633;-72
2021/09/20 09:03:26;;;;;;;3.13;2.03;;;17.60;61.60;;;;;;4913733;29;20128;-78
2021/09/20 09:05:52;;;;;;;3.95;1.92;;;17.60;63.30;;;;;;4911721;29;20509;-74
2021/09/20 09:08:19;;;;;;;4.45;2.15;;;17.60;64.80;;;;;;4917279;29;20040;-74
2021/09/20 09:10:57;;;;;;;2.47;1.83;;;17.70;64.50;;;;;;4920587;29;20075;-71
2021/09/20 09:13:35;;;;;;;5.05;2.10;;;17.80;63.10;;;;;;4926715;29;20044;-73
2021/09/20 09:16:23;;;;;;;3.38;1.92;;;17.90;63.50;;;;;;4916991;29;20042;-73
2021/09/20 09:19:07;;;;;;;4.80;2.30;;;17.80;61.80;;;;;;4913030;29;20833;-73
2021/09/20 09:21:42;;;;;;;7.43;3.13;;;17.80;62.80;;;;;;4913524;29;20089;-73
2021/09/20 09:24:10;;;;;;;2.65;2.28;;;17.90;61.40;;;;;;4917867;29;20027;-73
2021/09/20 09:26:37;;;;;;;4.00;2.20;;;17.90;63.90;;;;;;4913751;29;20540;-73
2021/09/20 09:29:13;;;;;;;2.83;2.35;;;17.90;63.60;;;;;;4914459;29;20124;-72
2021/09/20 09:31:41;;;;;;;4.18;2.63;;;17.80;64.10;;;;;;4916382;29;20088;-74
2021/09/20 09:34:16;;;;;;;3.53;2.30;;;17.80;63.20;;;;;;4917214;29;20053;-74
2021/09/20 09:36:42;;;;;;;2.97;2.10;;;17.80;65.30;;;;;;4917793;29;20067;-75
2021/09/20 09:39:08;;;;;;;2.58;1.83;;;17.80;63.50;;;;;;4914672;29;20047;-73
2021/09/20 09:41:37;;;;;;;3.83;1.85;;;17.90;62.00;;;;;;4916285;29;20103;-73
2021/09/20 09:44:04;;;;;;;2.67;1.77;;;17.90;59.60;;;;;;4913134;29;20036;-71
2021/09/20 09:46:37;;;;;;;4.65;1.83;;;18.00;58.80;;;;;;4916691;29;20108;-71
2021/09/20 09:49:14;;;;;;;2.08;1.80;;;17.90;59.30;;;;;;4914903;29;20036;-71
2021/09/20 09:51:54;;;;;;;5.40;2.28;;;17.90;60.50;;;;;;4916112;29;20083;-71
2021/09/20 09:54:31;;;;;;;3.33;1.83;;;17.80;61.10;;;;;;4913467;29;20035;-71
2021/09/20 09:57:33;;;;;;;4.70;1.73;;;17.90;62.90;;;;;;4917225;29;20036;-72
2021/09/20 10:00:03;;;;;;;4.07;2.50;;;18.00;60.70;;;;;;4891373;29;20040;-70
2021/09/20 10:02:39;;;;;;;2.42;1.63;;;18.10;60.40;;;;;;4916342;29;20040;-71
2021/09/20 10:05:13;;;;;;;4.30;1.95;;;18.30;58.20;;;;;;4915714;29;20555;-71
2021/09/20 10:07:41;;;;;;;6.63;2.47;;;18.40;58.30;;;;;;4912437;29;20051;-70
2021/09/20 10:10:18;;;;;;;2.92;1.98;;;18.60;58.50;;;;;;4915925;29;20035;-71
2021/09/20 10:12:46;;;;;;;3.30;1.55;;;18.80;55.10;;;;;;4917436;29;20036;-72
2021/09/20 10:15:16;;;;;;;2.55;1.75;;;18.70;56.00;;;;;;4916082;29;20040;-71
2021/09/20 10:17:42;;;;;;;2.05;1.60;;;18.70;57.90;;;;;;4916253;29;20060;-73
2021/09/20 10:20:12;;;;;;;2.72;1.40;;;18.70;57.10;;;;;;4917425;29;20106;-71
2021/09/20 10:22:38;;;;;;;2.72;1.60;;;18.70;58.70;;;;;;4913847;29;20496;-70
2021/09/20 10:25:06;;;;;;;2.13;1.60;;;18.60;55.00;;;;;;4915583;29;20040;-70
2021/09/20 10:27:32;;;;;;;7.57;2.00;;;18.50;54.60;;;;;;4916968;29;20044;-71
2021/09/20 10:30:08;;;;;;;3.08;1.77;;;18.50;58.00;;;;;;4915703;29;20142;-71
2021/09/20 10:32:34;;;;;;;2.38;1.88;;;18.70;58.80;;;;;;4911853;29;20044;-71
2021/09/20 10:35:32;;;;;;;3.35;1.83;;;18.80;57.30;;;;;;4917411;29;20659;-71
2021/09/20 10:38:25;;;;;;;3.47;2.10;;;19.10;57.00;;;;;;4916210;29;20047;-70
2021/09/20 10:41:10;;;;;;;4.82;2.38;;;19.40;55.00;;;;;;4917489;29;20036;-72
2021/09/20 10:43:58;;;;;;;3.75;1.90;;;19.60;54.90;;;;;;4911945;29;20098;-70
2021/09/20 10:46:28;;;;;;;3.72;1.80;;;19.60;53.80;;;;;;4913850;29;20143;-70
2021/09/20 10:48:59;;;;;;;3.15;1.65;;;19.70;55.20;;;;;;4914497;29;20054;-70
2021/09/20 10:51:37;;;;;;;3.13;1.70;;;19.80;52.60;;;;;;4910303;29;20114;-70
2021/09/20 10:54:25;;;;;;;4.63;1.50;;;19.70;54.40;;;;;;4914583;29;20095;-70
2021/09/20 10:57:10;;;;;;;3.35;2.20;;;19.70;53.30;;;;;;4915529;29;20481;-71
2021/09/20 10:59:36;;;;;;;4.22;1.75;;;19.50;54.50;;;;;;4917298;29;20578;-71
2021/09/20 11:02:05;;;;;;;3.90;1.55;;;19.40;55.10;;;;;;4915979;29;20122;-71
2021/09/20 11:04:32;;;;;;;4.80;1.67;;;19.20;55.90;;;;;;4916020;29;20504;-70
2021/09/20 11:07:05;;;;;;;5.95;1.67;;;19.10;56.30;;;;;;4914470;29;20783;-72
2021/09/20 11:09:46;;;;;;;3.30;1.92;;;19.00;55.60;;;;;;4920756;29;20218;-71
2021/09/20 11:12:19;;;;;;;3.42;1.80;;;18.90;56.80;;;;;;4913069;29;20591;-70
2021/09/20 11:14:49;;;;;;;4.85;1.95;;;18.70;57.60;;;;;;4915584;29;20594;-70
2021/09/20 11:17:22;;;;;;;6.15;1.88;;;18.60;58.10;;;;;;4919193;29;20063;-70
2021/09/20 11:19:50;;;;;;;2.70;2.13;;;18.50;58.50;;;;;;4915664;29;20036;-70
2021/09/20 11:22:17;;;;;;;4.68;2.30;;;18.50;58.80;;;;;;4914548;29;20063;-71
2021/09/20 11:24:43;;;;;;;4.15;2.00;;;18.40;59.20;;;;;;4916721;29;20048;-71
2021/09/20 11:27:26;;;;;;;3.10;2.08;;;18.40;59.00;;;;;;4914257;29;20062;-70
2021/09/20 11:29:58;;;;;;;3.10;1.95;;;18.40;59.80;;;;;;4918655;29;20167;-70
2021/09/20 11:32:24;;;;;;;4.50;2.35;;;18.30;60.00;;;;;;4917417;29;20226;-70
2021/09/20 11:34:53;;;;;;;4.28;2.13;;;18.30;61.90;;;;;;4913656;29;20043;-71
2021/09/20 11:37:29;;;;;;;5.22;1.98;;;18.20;61.00;;;;;;4915173;29;20043;-70
2021/09/20 11:39:59;;;;;;;;;;;18.20;60.00;;;;;;4918874;29;20710;-70
2021/09/20 11:42:41;;;;;;;6.88;2.38;;;18.10;60.50;;;;;;4911526;29;19985;-69
2021/09/20 11:45:13;;;;;;;3.25;2.00;;;18.10;61.90;;;;;;4915742;29;20048;-70
2021/09/20 11:47:42;;;;;;;2.83;2.03;;;18.10;62.40;;;;;;4910840;29;20039;-70
2021/09/20 11:50:14;;;;;;;3.33;1.90;;;18.00;61.10;;;;;;4912399;29;20063;-70
2021/09/20 11:52:46;;;;;;;4.57;2.47;;;18.00;61.80;;;;;;4914624;29;20032;-70
2021/09/20 11:55:26;;;;;;;3.13;2.00;;;18.00;61.70;;;;;;4914661;29;20259;-71
2021/09/20 11:58:00;;;;;;;2.60;2.25;;;17.90;60.90;;;;;;4914213;29;20036;-71
2021/09/20 12:00:28;;;;;;;3.70;2.03;;;17.90;61.80;;;;;;4920455;29;20822;-71
2021/09/20 12:02:56;;;;;;;3.38;1.75;;;17.80;61.80;;;;;;4912828;29;20032;-71
2021/09/20 12:05:28;;;;;;;3.90;1.85;;;17.80;63.40;;;;;;4912461;29;20816;-70
2021/09/20 12:08:24;;;;;;;4.20;2.10;;;17.80;64.10;;;;;;4909818;29;20039;-72
2021/09/20 12:10:55;;;;;;;2.77;1.97;;;17.70;64.80;;;;;;4911618;29;20053;-72
2021/09/20 12:13:30;;;;;;;2.42;2.00;;;17.80;63.30;;;;;;4912251;29;20056;-72
2021/09/20 12:16:01;;;;;;;4.05;1.90;;;17.80;64.00;;;;;;4913758;29;20046;-72
2021/09/20 12:18:28;;;;;;;4.35;2.10;;;17.80;65.40;;;;;;4910250;29;20126;-68
2021/09/20 12:21:00;;;;;;;3.00;2.00;;;17.80;63.10;;;;;;4912056;29;20039;-72
2021/09/20 12:23:31;;;;;;;2.55;1.70;;;17.90;64.00;;;;;;4911253;29;20040;-71
2021/09/20 12:26:02;;;;;;;2.95;1.92;;;17.90;62.80;;;;;;4914323;29;20044;-71
2021/09/20 12:28:37;;;;;;;3.25;1.80;;;18.00;61.20;;;;;;4917748;29;20090;-70
2021/09/20 12:31:16;;;;;;;3.20;2.17;;;18.00;61.60;;;;;;4928095;29;20052;-74
2021/09/20 12:33:58;;;;;;;2.40;1.88;;;17.90;60.60;;;;;;4912127;29;20046;-72
2021/09/20 12:36:26;;;;;;;2.95;1.98;;;18.00;60.60;;;;;;4912386;29;20055;-71
2021/09/20 12:39:00;;;;;;;3.75;1.85;;;18.00;62.50;;;;;;4919509;29;20046;-71
2021/09/20 12:41:56;;;;;;;2.28;1.73;;;18.00;60.70;;;;;;4910343;29;20031;-71
2021/09/20 12:44:33;;;;;;;2.60;1.80;;;18.00;60.90;;;;;;4912384;29;20087;-71
2021/09/20 12:47:03;;;;;;;3.20;1.73;;;18.00;60.90;;;;;;4913439;29;20040;-71
2021/09/20 12:49:29;;;;;;;2.60;1.90;;;18.00;62.00;;;;;;4910645;29;20039;-70
2021/09/20 12:51:55;;;;;;;1.92;1.60;;;18.00;62.30;;;;;;4911467;29;20083;-71